sensor_id;sensor_type;location;lat;lon;timestamp;P1;durP1;ratioP1;P2;durP2;ratioP2
66800;SDS011;53703;50.326;19.122;2023-06-04T00:03:10;2.70;;;1.30;;
66800;SDS011;53703;50.326;19.122;2023-06-04T00:06:04;5.40;;;1.60;;
66800;SDS011;53703;50.326;19.122;2023-06-04T00:08:58;5.30;;;1.60;;
66800;SDS011;53703;50.326;19.122;2023-06-04T00:11:53;5.90;;;1.50;;
66800;SDS011;53703;50.326;19.122;2023-06-04T00:14:47;2.10;;;1.30;;
66800;SDS011;53703;50.326;19.122;2023-06-04T00:17:41;2.60;;;1.20;;
66800;SDS011;53703;50.326;19.122;2023-06-04T00:20:36;3.40;;;1.30;;
66800;SDS011;53703;50.326;19.122;2023-06-04T00:23:30;2.60;;;1.40;;
66800;SDS011;53703;50.326;19.122;2023-06-04T00:26:24;2.60;;;1.60;;
66800;SDS011;53703;50.326;19.122;2023-06-04T00:29:18;2.90;;;1.50;;
66800;SDS011;53703;50.326;19.122;2023-06-04T00:32:13;6.00;;;1.50;;
66800;SDS011;53703;50.326;19.122;2023-06-04T00:35:08;2.20;;;1.10;;
66800;SDS011;53703;50.326;19.122;2023-06-04T00:38:02;3.10;;;1.40;;
66800;SDS011;53703;50.326;19.122;2023-06-04T00:40:57;4.90;;;1.50;;
66800;SDS011;53703;50.326;19.122;2023-06-04T00:43:51;3.00;;;1.30;;
66800;SDS011;53703;50.326;19.122;2023-06-04T00:46:47;2.70;;;1.30;;
66800;SDS011;53703;50.326;19.122;2023-06-04T00:49:42;3.80;;;1.30;;
66800;SDS011;53703;50.326;19.122;2023-06-04T00:52:36;3.60;;;1.50;;
66800;SDS011;53703;50.326;19.122;2023-06-04T00:55:21;3.50;;;1.30;;
66800;SDS011;53703;50.326;19.122;2023-06-04T00:58:15;2.10;;;1.20;;
66800;SDS011;53703;50.326;19.122;2023-06-04T01:00:56;3.80;;;1.50;;
66800;SDS011;53703;50.326;19.122;2023-06-04T01:03:57;2.70;;;1.50;;
66800;SDS011;53703;50.326;19.122;2023-06-04T01:06:56;2.30;;;1.20;;
66800;SDS011;53703;50.326;19.122;2023-06-04T01:09:53;2.60;;;1.40;;
66800;SDS011;53703;50.326;19.122;2023-06-04T01:12:47;4.90;;;1.60;;
66800;SDS011;53703;50.326;19.122;2023-06-04T01:15:41;4.90;;;1.60;;
66800;SDS011;53703;50.326;19.122;2023-06-04T01:18:36;4.70;;;1.50;;
66800;SDS011;53703;50.326;19.122;2023-06-04T01:21:32;4.20;;;1.60;;
66800;SDS011;53703;50.326;19.122;2023-06-04T01:27:23;4.60;;;1.80;;
66800;SDS011;53703;50.326;19.122;2023-06-04T01:30:18;3.50;;;1.60;;
66800;SDS011;53703;50.326;19.122;2023-06-04T01:33:17;7.10;;;1.80;;
66800;SDS011;53703;50.326;19.122;2023-06-04T01:36:12;5.60;;;2.60;;
66800;SDS011;53703;50.326;19.122;2023-06-04T01:39:08;7.00;;;1.70;;
66800;SDS011;53703;50.326;19.122;2023-06-04T01:42:02;17.30;;;2.40;;
66800;SDS011;53703;50.326;19.122;2023-06-04T01:44:57;4.70;;;1.90;;
66800;SDS011;53703;50.326;19.122;2023-06-04T01:47:52;5.10;;;2.00;;
66800;SDS011;53703;50.326;19.122;2023-06-04T01:50:46;6.40;;;2.20;;
66800;SDS011;53703;50.326;19.122;2023-06-04T01:53:40;3.80;;;1.80;;
66800;SDS011;53703;50.326;19.122;2023-06-04T01:56:34;5.20;;;1.90;;
66800;SDS011;53703;50.326;19.122;2023-06-04T01:59:28;4.30;;;2.10;;
66800;SDS011;53703;50.326;19.122;2023-06-04T02:02:24;5.30;;;2.30;;
66800;SDS011;53703;50.326;19.122;2023-06-04T02:05:18;7.60;;;2.10;;
66800;SDS011;53703;50.326;19.122;2023-06-04T02:08:14;5.00;;;2.30;;
66800;SDS011;53703;50.326;19.122;2023-06-04T02:11:10;8.30;;;2.80;;
66800;SDS011;53703;50.326;19.122;2023-06-04T02:14:04;9.60;;;3.00;;
66800;SDS011;53703;50.326;19.122;2023-06-04T02:16:58;8.40;;;2.90;;
66800;SDS011;53703;50.326;19.122;2023-06-04T02:19:53;6.70;;;2.90;;
66800;SDS011;53703;50.326;19.122;2023-06-04T02:22:47;11.30;;;2.90;;
66800;SDS011;53703;50.326;19.122;2023-06-04T02:25:42;7.70;;;3.10;;
66800;SDS011;53703;50.326;19.122;2023-06-04T02:28:36;9.10;;;2.80;;
66800;SDS011;53703;50.326;19.122;2023-06-04T02:31:31;13.90;;;2.70;;
66800;SDS011;53703;50.326;19.122;2023-06-04T02:34:26;7.70;;;2.60;;
66800;SDS011;53703;50.326;19.122;2023-06-04T02:37:20;8.60;;;2.80;;
66800;SDS011;53703;50.326;19.122;2023-06-04T02:40:14;9.00;;;2.90;;
66800;SDS011;53703;50.326;19.122;2023-06-04T02:43:09;8.40;;;2.60;;
66800;SDS011;53703;50.326;19.122;2023-06-04T02:46:03;5.50;;;2.40;;
66800;SDS011;53703;50.326;19.122;2023-06-04T02:48:58;9.80;;;2.90;;
66800;SDS011;53703;50.326;19.122;2023-06-04T02:51:52;9.90;;;2.90;;
66800;SDS011;53703;50.326;19.122;2023-06-04T02:54:46;8.00;;;2.80;;
66800;SDS011;53703;50.326;19.122;2023-06-04T02:57:42;6.60;;;2.70;;
66800;SDS011;53703;50.326;19.122;2023-06-04T03:00:36;8.30;;;3.10;;
66800;SDS011;53703;50.326;19.122;2023-06-04T03:03:31;8.70;;;2.80;;
66800;SDS011;53703;50.326;19.122;2023-06-04T03:06:25;8.00;;;2.90;;
66800;SDS011;53703;50.326;19.122;2023-06-04T03:09:20;7.10;;;2.70;;
66800;SDS011;53703;50.326;19.122;2023-06-04T03:12:15;7.70;;;3.00;;
66800;SDS011;53703;50.326;19.122;2023-06-04T03:15:01;5.90;;;2.40;;
66800;SDS011;53703;50.326;19.122;2023-06-04T03:17:56;7.60;;;2.70;;
66800;SDS011;53703;50.326;19.122;2023-06-04T03:20:51;7.20;;;2.40;;
66800;SDS011;53703;50.326;19.122;2023-06-04T03:23:45;13.70;;;3.20;;
66800;SDS011;53703;50.326;19.122;2023-06-04T03:26:39;9.50;;;3.20;;
66800;SDS011;53703;50.326;19.122;2023-06-04T03:29:33;7.20;;;2.90;;
66800;SDS011;53703;50.326;19.122;2023-06-04T03:32:29;7.80;;;2.70;;
66800;SDS011;53703;50.326;19.122;2023-06-04T03:35:23;10.30;;;2.90;;
66800;SDS011;53703;50.326;19.122;2023-06-04T03:38:18;7.60;;;2.60;;
66800;SDS011;53703;50.326;19.122;2023-06-04T03:41:12;7.70;;;2.90;;
66800;SDS011;53703;50.326;19.122;2023-06-04T03:44:06;6.50;;;2.50;;
66800;SDS011;53703;50.326;19.122;2023-06-04T03:47:00;7.40;;;2.70;;
66800;SDS011;53703;50.326;19.122;2023-06-04T03:49:55;9.70;;;2.90;;
66800;SDS011;53703;50.326;19.122;2023-06-04T03:52:49;6.10;;;2.50;;
66800;SDS011;53703;50.326;19.122;2023-06-04T03:55:43;8.10;;;2.40;;
66800;SDS011;53703;50.326;19.122;2023-06-04T03:58:37;6.40;;;2.60;;
66800;SDS011;53703;50.326;19.122;2023-06-04T04:01:32;10.80;;;2.70;;
66800;SDS011;53703;50.326;19.122;2023-06-04T04:04:26;6.90;;;2.30;;
66800;SDS011;53703;50.326;19.122;2023-06-04T04:07:20;6.60;;;2.50;;
66800;SDS011;53703;50.326;19.122;2023-06-04T04:10:15;6.30;;;2.40;;
66800;SDS011;53703;50.326;19.122;2023-06-04T04:13:09;6.30;;;2.10;;
66800;SDS011;53703;50.326;19.122;2023-06-04T04:16:03;5.50;;;2.40;;
66800;SDS011;53703;50.326;19.122;2023-06-04T04:18:57;6.20;;;2.30;;
66800;SDS011;53703;50.326;19.122;2023-06-04T04:21:52;6.10;;;2.30;;
66800;SDS011;53703;50.326;19.122;2023-06-04T04:24:46;7.40;;;2.70;;
66800;SDS011;53703;50.326;19.122;2023-06-04T04:27:40;7.10;;;2.50;;
66800;SDS011;53703;50.326;19.122;2023-06-04T04:30:34;5.20;;;2.50;;
66800;SDS011;53703;50.326;19.122;2023-06-04T04:33:30;6.80;;;2.50;;
66800;SDS011;53703;50.326;19.122;2023-06-04T04:36:27;7.10;;;2.40;;
66800;SDS011;53703;50.326;19.122;2023-06-04T04:39:24;7.10;;;2.50;;
66800;SDS011;53703;50.326;19.122;2023-06-04T04:42:18;8.40;;;2.70;;
66800;SDS011;53703;50.326;19.122;2023-06-04T04:45:12;7.00;;;2.40;;
66800;SDS011;53703;50.326;19.122;2023-06-04T04:48:08;7.50;;;2.10;;
66800;SDS011;53703;50.326;19.122;2023-06-04T04:51:02;7.20;;;2.40;;
66800;SDS011;53703;50.326;19.122;2023-06-04T04:53:57;5.90;;;2.50;;
66800;SDS011;53703;50.326;19.122;2023-06-04T04:56:52;6.30;;;2.30;;
66800;SDS011;53703;50.326;19.122;2023-06-04T05:00:03;4.90;;;2.20;;
66800;SDS011;53703;50.326;19.122;2023-06-04T05:02:59;8.40;;;2.70;;
66800;SDS011;53703;50.326;19.122;2023-06-04T05:05:54;5.00;;;1.80;;
66800;SDS011;53703;50.326;19.122;2023-06-04T05:08:48;5.50;;;1.90;;
66800;SDS011;53703;50.326;19.122;2023-06-04T05:11:42;4.80;;;1.80;;
66800;SDS011;53703;50.326;19.122;2023-06-04T05:14:36;3.90;;;1.70;;
66800;SDS011;53703;50.326;19.122;2023-06-04T05:17:30;5.30;;;2.00;;
66800;SDS011;53703;50.326;19.122;2023-06-04T05:20:27;3.20;;;1.50;;
66800;SDS011;53703;50.326;19.122;2023-06-04T05:23:21;5.50;;;1.80;;
66800;SDS011;53703;50.326;19.122;2023-06-04T05:26:16;3.50;;;1.60;;
66800;SDS011;53703;50.326;19.122;2023-06-04T05:29:20;6.80;;;1.90;;
66800;SDS011;53703;50.326;19.122;2023-06-04T05:32:14;5.00;;;1.70;;
66800;SDS011;53703;50.326;19.122;2023-06-04T05:35:09;2.60;;;1.30;;
66800;SDS011;53703;50.326;19.122;2023-06-04T05:38:03;3.20;;;1.50;;
66800;SDS011;53703;50.326;19.122;2023-06-04T05:40:57;7.70;;;1.50;;
66800;SDS011;53703;50.326;19.122;2023-06-04T05:43:52;3.20;;;1.70;;
66800;SDS011;53703;50.326;19.122;2023-06-04T05:46:46;2.50;;;1.40;;
66800;SDS011;53703;50.326;19.122;2023-06-04T05:49:41;3.60;;;1.30;;
66800;SDS011;53703;50.326;19.122;2023-06-04T05:52:35;3.00;;;1.30;;
66800;SDS011;53703;50.326;19.122;2023-06-04T05:55:30;2.80;;;1.40;;
66800;SDS011;53703;50.326;19.122;2023-06-04T05:58:24;2.60;;;1.40;;
66800;SDS011;53703;50.326;19.122;2023-06-04T06:01:18;4.00;;;1.40;;
66800;SDS011;53703;50.326;19.122;2023-06-04T06:04:13;3.30;;;1.30;;
66800;SDS011;53703;50.326;19.122;2023-06-04T06:07:07;2.50;;;1.20;;
66800;SDS011;53703;50.326;19.122;2023-06-04T06:10:01;4.30;;;1.90;;
66800;SDS011;53703;50.326;19.122;2023-06-04T06:12:57;5.60;;;1.50;;
66800;SDS011;53703;50.326;19.122;2023-06-04T06:15:52;3.60;;;1.50;;
66800;SDS011;53703;50.326;19.122;2023-06-04T06:18:49;4.10;;;1.40;;
66800;SDS011;53703;50.326;19.122;2023-06-04T06:21:44;4.80;;;1.50;;
66800;SDS011;53703;50.326;19.122;2023-06-04T06:24:39;3.30;;;1.20;;
66800;SDS011;53703;50.326;19.122;2023-06-04T06:27:33;3.00;;;1.40;;
66800;SDS011;53703;50.326;19.122;2023-06-04T06:30:27;4.50;;;1.70;;
66800;SDS011;53703;50.326;19.122;2023-06-04T06:33:21;6.10;;;1.50;;
66800;SDS011;53703;50.326;19.122;2023-06-04T06:36:15;3.20;;;1.40;;
66800;SDS011;53703;50.326;19.122;2023-06-04T06:39:10;3.60;;;1.30;;
66800;SDS011;53703;50.326;19.122;2023-06-04T06:42:04;5.70;;;1.60;;
66800;SDS011;53703;50.326;19.122;2023-06-04T06:44:58;5.50;;;1.40;;
66800;SDS011;53703;50.326;19.122;2023-06-04T06:47:52;4.50;;;1.50;;
66800;SDS011;53703;50.326;19.122;2023-06-04T06:50:46;9.70;;;1.60;;
66800;SDS011;53703;50.326;19.122;2023-06-04T06:53:41;5.30;;;1.60;;
66800;SDS011;53703;50.326;19.122;2023-06-04T06:56:35;6.00;;;1.50;;
66800;SDS011;53703;50.326;19.122;2023-06-04T06:59:29;9.50;;;1.50;;
66800;SDS011;53703;50.326;19.122;2023-06-04T07:02:23;4.00;;;1.40;;
66800;SDS011;53703;50.326;19.122;2023-06-04T07:05:25;6.10;;;1.80;;
66800;SDS011;53703;50.326;19.122;2023-06-04T07:08:19;3.80;;;1.30;;
66800;SDS011;53703;50.326;19.122;2023-06-04T07:11:13;5.20;;;1.80;;
66800;SDS011;53703;50.326;19.122;2023-06-04T07:14:08;2.90;;;1.40;;
66800;SDS011;53703;50.326;19.122;2023-06-04T07:17:02;3.70;;;1.60;;
66800;SDS011;53703;50.326;19.122;2023-06-04T07:19:56;2.60;;;1.30;;
66800;SDS011;53703;50.326;19.122;2023-06-04T07:22:32;5.10;;;1.50;;
66800;SDS011;53703;50.326;19.122;2023-06-04T07:25:26;3.40;;;1.90;;
66800;SDS011;53703;50.326;19.122;2023-06-04T07:28:20;3.90;;;1.10;;
66800;SDS011;53703;50.326;19.122;2023-06-04T07:31:17;5.20;;;1.30;;
66800;SDS011;53703;50.326;19.122;2023-06-04T07:34:11;2.70;;;1.40;;
66800;SDS011;53703;50.326;19.122;2023-06-04T07:37:06;4.10;;;1.70;;
66800;SDS011;53703;50.326;19.122;2023-06-04T07:40:01;4.10;;;1.50;;
66800;SDS011;53703;50.326;19.122;2023-06-04T07:42:55;2.70;;;1.30;;
66800;SDS011;53703;50.326;19.122;2023-06-04T07:45:49;2.80;;;1.40;;
66800;SDS011;53703;50.326;19.122;2023-06-04T07:48:44;7.50;;;1.90;;
66800;SDS011;53703;50.326;19.122;2023-06-04T07:51:38;4.80;;;1.60;;
66800;SDS011;53703;50.326;19.122;2023-06-04T07:54:32;3.20;;;1.40;;
66800;SDS011;53703;50.326;19.122;2023-06-04T07:57:26;4.10;;;1.40;;
66800;SDS011;53703;50.326;19.122;2023-06-04T08:00:20;4.60;;;1.40;;
66800;SDS011;53703;50.326;19.122;2023-06-04T08:03:14;2.80;;;1.30;;
66800;SDS011;53703;50.326;19.122;2023-06-04T08:06:10;3.80;;;1.30;;
66800;SDS011;53703;50.326;19.122;2023-06-04T08:09:05;5.40;;;1.80;;
66800;SDS011;53703;50.326;19.122;2023-06-04T08:12:01;3.70;;;1.60;;
66800;SDS011;53703;50.326;19.122;2023-06-04T08:14:55;4.60;;;1.60;;
66800;SDS011;53703;50.326;19.122;2023-06-04T08:17:49;6.00;;;1.30;;
66800;SDS011;53703;50.326;19.122;2023-06-04T08:20:43;2.80;;;1.20;;
66800;SDS011;53703;50.326;19.122;2023-06-04T08:23:38;2.40;;;1.10;;
66800;SDS011;53703;50.326;19.122;2023-06-04T08:26:33;3.10;;;1.30;;
66800;SDS011;53703;50.326;19.122;2023-06-04T08:29:27;4.80;;;1.40;;
66800;SDS011;53703;50.326;19.122;2023-06-04T08:32:21;3.30;;;1.40;;
66800;SDS011;53703;50.326;19.122;2023-06-04T08:35:16;2.10;;;1.20;;
66800;SDS011;53703;50.326;19.122;2023-06-04T08:38:10;1.90;;;1.20;;
66800;SDS011;53703;50.326;19.122;2023-06-04T08:41:11;2.90;;;1.30;;
66800;SDS011;53703;50.326;19.122;2023-06-04T08:44:07;2.30;;;1.30;;
66800;SDS011;53703;50.326;19.122;2023-06-04T08:47:05;2.60;;;1.20;;
66800;SDS011;53703;50.326;19.122;2023-06-04T08:50:00;3.40;;;1.10;;
66800;SDS011;53703;50.326;19.122;2023-06-04T08:52:57;4.30;;;1.50;;
66800;SDS011;53703;50.326;19.122;2023-06-04T08:55:52;3.70;;;1.60;;
66800;SDS011;53703;50.326;19.122;2023-06-04T08:58:47;3.00;;;1.30;;
66800;SDS011;53703;50.326;19.122;2023-06-04T09:01:43;2.90;;;1.50;;
66800;SDS011;53703;50.326;19.122;2023-06-04T09:04:38;3.90;;;1.20;;
66800;SDS011;53703;50.326;19.122;2023-06-04T09:07:33;4.50;;;1.20;;
66800;SDS011;53703;50.326;19.122;2023-06-04T09:10:31;5.10;;;1.50;;
66800;SDS011;53703;50.326;19.122;2023-06-04T09:13:29;5.00;;;1.40;;
66800;SDS011;53703;50.326;19.122;2023-06-04T09:16:29;2.70;;;1.50;;
66800;SDS011;53703;50.326;19.122;2023-06-04T09:19:33;2.60;;;1.40;;
66800;SDS011;53703;50.326;19.122;2023-06-04T09:22:34;2.00;;;1.20;;
66800;SDS011;53703;50.326;19.122;2023-06-04T09:25:29;3.80;;;1.60;;
66800;SDS011;53703;50.326;19.122;2023-06-04T09:28:23;3.80;;;1.10;;
66800;SDS011;53703;50.326;19.122;2023-06-04T09:31:23;5.90;;;1.20;;
66800;SDS011;53703;50.326;19.122;2023-06-04T09:34:28;3.50;;;1.50;;
66800;SDS011;53703;50.326;19.122;2023-06-04T09:37:22;5.20;;;1.30;;
66800;SDS011;53703;50.326;19.122;2023-06-04T09:40:17;2.60;;;1.30;;
66800;SDS011;53703;50.326;19.122;2023-06-04T09:43:20;5.00;;;1.60;;
66800;SDS011;53703;50.326;19.122;2023-06-04T09:46:22;5.60;;;1.40;;
66800;SDS011;53703;50.326;19.122;2023-06-04T09:49:16;4.20;;;1.40;;
66800;SDS011;53703;50.326;19.122;2023-06-04T09:52:11;4.60;;;1.30;;
66800;SDS011;53703;50.326;19.122;2023-06-04T09:55:04;3.80;;;1.20;;
66800;SDS011;53703;50.326;19.122;2023-06-04T09:58:18;2.40;;;1.30;;
66800;SDS011;53703;50.326;19.122;2023-06-04T10:01:13;3.50;;;1.30;;
66800;SDS011;53703;50.326;19.122;2023-06-04T10:04:08;3.00;;;1.20;;
66800;SDS011;53703;50.326;19.122;2023-06-04T10:09:59;3.90;;;1.10;;
66800;SDS011;53703;50.326;19.122;2023-06-04T10:13:05;6.20;;;1.30;;
66800;SDS011;53703;50.326;19.122;2023-06-04T10:15:51;6.20;;;1.40;;
66800;SDS011;53703;50.326;19.122;2023-06-04T10:18:45;3.00;;;1.30;;
66800;SDS011;53703;50.326;19.122;2023-06-04T10:21:41;3.40;;;1.10;;
66800;SDS011;53703;50.326;19.122;2023-06-04T10:24:35;4.10;;;1.50;;
66800;SDS011;53703;50.326;19.122;2023-06-04T10:27:31;4.20;;;1.60;;
66800;SDS011;53703;50.326;19.122;2023-06-04T10:30:28;3.40;;;1.10;;
66800;SDS011;53703;50.326;19.122;2023-06-04T10:33:23;3.20;;;1.30;;
66800;SDS011;53703;50.326;19.122;2023-06-04T10:36:21;2.90;;;1.20;;
66800;SDS011;53703;50.326;19.122;2023-06-04T10:39:26;6.20;;;1.40;;
66800;SDS011;53703;50.326;19.122;2023-06-04T10:42:20;4.20;;;1.70;;
66800;SDS011;53703;50.326;19.122;2023-06-04T10:45:15;3.00;;;1.70;;
66800;SDS011;53703;50.326;19.122;2023-06-04T10:48:09;4.00;;;1.70;;
66800;SDS011;53703;50.326;19.122;2023-06-04T10:51:04;6.30;;;1.60;;
66800;SDS011;53703;50.326;19.122;2023-06-04T10:53:59;5.80;;;2.90;;
66800;SDS011;53703;50.326;19.122;2023-06-04T10:56:54;8.60;;;3.70;;
66800;SDS011;53703;50.326;19.122;2023-06-04T10:59:56;18.10;;;10.60;;
66800;SDS011;53703;50.326;19.122;2023-06-04T11:02:56;19.40;;;11.00;;
66800;SDS011;53703;50.326;19.122;2023-06-04T11:05:50;11.70;;;5.80;;
66800;SDS011;53703;50.326;19.122;2023-06-04T11:08:44;8.00;;;3.40;;
66800;SDS011;53703;50.326;19.122;2023-06-04T11:11:39;6.90;;;2.90;;
66800;SDS011;53703;50.326;19.122;2023-06-04T11:14:34;6.40;;;2.80;;
66800;SDS011;53703;50.326;19.122;2023-06-04T11:17:28;5.20;;;3.30;;
66800;SDS011;53703;50.326;19.122;2023-06-04T11:20:24;5.50;;;2.90;;
66800;SDS011;53703;50.326;19.122;2023-06-04T11:23:18;7.00;;;2.60;;
66800;SDS011;53703;50.326;19.122;2023-06-04T11:26:12;5.40;;;2.20;;
66800;SDS011;53703;50.326;19.122;2023-06-04T11:29:11;4.60;;;2.20;;
66800;SDS011;53703;50.326;19.122;2023-06-04T11:32:07;6.70;;;2.10;;
66800;SDS011;53703;50.326;19.122;2023-06-04T11:35:07;3.60;;;1.80;;
66800;SDS011;53703;50.326;19.122;2023-06-04T11:38:02;10.80;;;2.10;;
66800;SDS011;53703;50.326;19.122;2023-06-04T11:41:01;2.80;;;1.60;;
66800;SDS011;53703;50.326;19.122;2023-06-04T11:43:56;4.70;;;1.90;;
66800;SDS011;53703;50.326;19.122;2023-06-04T11:46:53;3.30;;;1.80;;
66800;SDS011;53703;50.326;19.122;2023-06-04T11:49:47;3.50;;;1.70;;
66800;SDS011;53703;50.326;19.122;2023-06-04T11:53:01;3.50;;;1.60;;
66800;SDS011;53703;50.326;19.122;2023-06-04T11:55:56;4.40;;;1.90;;
66800;SDS011;53703;50.326;19.122;2023-06-04T11:58:51;2.20;;;1.40;;
66800;SDS011;53703;50.326;19.122;2023-06-04T12:01:46;5.00;;;1.60;;
66800;SDS011;53703;50.326;19.122;2023-06-04T12:04:41;3.30;;;1.40;;
66800;SDS011;53703;50.326;19.122;2023-06-04T12:07:36;2.60;;;1.40;;
66800;SDS011;53703;50.326;19.122;2023-06-04T12:10:30;5.00;;;1.80;;
66800;SDS011;53703;50.326;19.122;2023-06-04T12:13:38;2.80;;;1.80;;
66800;SDS011;53703;50.326;19.122;2023-06-04T12:16:32;2.90;;;1.40;;
66800;SDS011;53703;50.326;19.122;2023-06-04T12:19:26;3.50;;;2.00;;
66800;SDS011;53703;50.326;19.122;2023-06-04T12:22:20;3.20;;;1.70;;
66800;SDS011;53703;50.326;19.122;2023-06-04T12:25:35;3.50;;;1.50;;
66800;SDS011;53703;50.326;19.122;2023-06-04T12:28:30;4.30;;;1.60;;
66800;SDS011;53703;50.326;19.122;2023-06-04T12:31:25;2.50;;;1.40;;
66800;SDS011;53703;50.326;19.122;2023-06-04T12:34:22;4.00;;;1.50;;
66800;SDS011;53703;50.326;19.122;2023-06-04T12:37:16;3.90;;;1.60;;
66800;SDS011;53703;50.326;19.122;2023-06-04T12:40:12;5.70;;;1.60;;
66800;SDS011;53703;50.326;19.122;2023-06-04T12:43:07;3.80;;;1.50;;
66800;SDS011;53703;50.326;19.122;2023-06-04T12:46:02;4.10;;;1.50;;
66800;SDS011;53703;50.326;19.122;2023-06-04T12:48:57;4.50;;;1.70;;
66800;SDS011;53703;50.326;19.122;2023-06-04T12:51:51;4.30;;;1.50;;
66800;SDS011;53703;50.326;19.122;2023-06-04T12:54:45;4.10;;;1.80;;
66800;SDS011;53703;50.326;19.122;2023-06-04T12:57:39;7.80;;;1.80;;
66800;SDS011;53703;50.326;19.122;2023-06-04T13:00:35;5.10;;;2.80;;
66800;SDS011;53703;50.326;19.122;2023-06-04T13:03:31;4.10;;;1.90;;
66800;SDS011;53703;50.326;19.122;2023-06-04T13:06:26;4.30;;;1.40;;
66800;SDS011;53703;50.326;19.122;2023-06-04T13:09:20;3.70;;;1.60;;
66800;SDS011;53703;50.326;19.122;2023-06-04T13:12:14;4.20;;;1.60;;
66800;SDS011;53703;50.326;19.122;2023-06-04T13:15:09;3.00;;;1.50;;
66800;SDS011;53703;50.326;19.122;2023-06-04T13:18:03;5.70;;;1.60;;
66800;SDS011;53703;50.326;19.122;2023-06-04T13:20:57;4.40;;;1.50;;
66800;SDS011;53703;50.326;19.122;2023-06-04T13:23:51;4.30;;;1.80;;
66800;SDS011;53703;50.326;19.122;2023-06-04T13:26:47;4.60;;;1.60;;
66800;SDS011;53703;50.326;19.122;2023-06-04T13:29:41;4.70;;;1.80;;
66800;SDS011;53703;50.326;19.122;2023-06-04T13:32:35;4.50;;;1.70;;
66800;SDS011;53703;50.326;19.122;2023-06-04T13:35:29;3.90;;;1.70;;
66800;SDS011;53703;50.326;19.122;2023-06-04T13:38:24;3.90;;;1.80;;
66800;SDS011;53703;50.326;19.122;2023-06-04T13:41:18;3.90;;;1.80;;
66800;SDS011;53703;50.326;19.122;2023-06-04T13:44:13;3.40;;;1.50;;
66800;SDS011;53703;50.326;19.122;2023-06-04T13:47:07;4.40;;;1.80;;
66800;SDS011;53703;50.326;19.122;2023-06-04T13:50:01;4.80;;;1.70;;
66800;SDS011;53703;50.326;19.122;2023-06-04T13:52:55;3.20;;;1.60;;
66800;SDS011;53703;50.326;19.122;2023-06-04T13:55:49;5.70;;;1.90;;
66800;SDS011;53703;50.326;19.122;2023-06-04T13:58:49;3.20;;;1.70;;
66800;SDS011;53703;50.326;19.122;2023-06-04T14:01:42;3.60;;;1.90;;
66800;SDS011;53703;50.326;19.122;2023-06-04T14:04:36;5.50;;;1.90;;
66800;SDS011;53703;50.326;19.122;2023-06-04T14:07:30;3.50;;;1.80;;
66800;SDS011;53703;50.326;19.122;2023-06-04T14:10:24;7.70;;;1.90;;
66800;SDS011;53703;50.326;19.122;2023-06-04T14:13:18;4.80;;;1.80;;
66800;SDS011;53703;50.326;19.122;2023-06-04T14:16:12;3.60;;;1.60;;
66800;SDS011;53703;50.326;19.122;2023-06-04T14:19:06;5.80;;;2.10;;
66800;SDS011;53703;50.326;19.122;2023-06-04T14:22:00;3.50;;;1.70;;
66800;SDS011;53703;50.326;19.122;2023-06-04T14:24:54;4.50;;;1.90;;
66800;SDS011;53703;50.326;19.122;2023-06-04T14:27:48;7.50;;;1.90;;
66800;SDS011;53703;50.326;19.122;2023-06-04T14:30:42;5.60;;;1.90;;
66800;SDS011;53703;50.326;19.122;2023-06-04T14:33:36;5.80;;;1.80;;
66800;SDS011;53703;50.326;19.122;2023-06-04T14:36:30;4.40;;;1.90;;
66800;SDS011;53703;50.326;19.122;2023-06-04T14:39:24;4.20;;;1.90;;
66800;SDS011;53703;50.326;19.122;2023-06-04T14:42:18;4.70;;;1.90;;
66800;SDS011;53703;50.326;19.122;2023-06-04T14:45:12;3.70;;;1.80;;
66800;SDS011;53703;50.326;19.122;2023-06-04T14:48:06;5.40;;;2.10;;
66800;SDS011;53703;50.326;19.122;2023-06-04T14:51:06;4.50;;;1.90;;
66800;SDS011;53703;50.326;19.122;2023-06-04T14:54:00;4.30;;;1.90;;
66800;SDS011;53703;50.326;19.122;2023-06-04T14:56:54;6.10;;;2.00;;
66800;SDS011;53703;50.326;19.122;2023-06-04T14:59:49;4.30;;;1.90;;
66800;SDS011;53703;50.326;19.122;2023-06-04T15:02:43;4.20;;;1.90;;
66800;SDS011;53703;50.326;19.122;2023-06-04T15:05:37;4.60;;;2.10;;
66800;SDS011;53703;50.326;19.122;2023-06-04T15:08:31;4.50;;;2.00;;
66800;SDS011;53703;50.326;19.122;2023-06-04T15:11:25;5.40;;;2.50;;
66800;SDS011;53703;50.326;19.122;2023-06-04T15:14:19;3.90;;;2.00;;
66800;SDS011;53703;50.326;19.122;2023-06-04T15:17:13;4.70;;;2.40;;
66800;SDS011;53703;50.326;19.122;2023-06-04T15:20:08;5.00;;;2.20;;
66800;SDS011;53703;50.326;19.122;2023-06-04T15:23:02;6.10;;;2.30;;
66800;SDS011;53703;50.326;19.122;2023-06-04T15:25:57;4.80;;;2.30;;
66800;SDS011;53703;50.326;19.122;2023-06-04T15:28:50;5.60;;;2.20;;
66800;SDS011;53703;50.326;19.122;2023-06-04T15:31:45;5.10;;;2.40;;
66800;SDS011;53703;50.326;19.122;2023-06-04T15:34:39;5.30;;;2.40;;
66800;SDS011;53703;50.326;19.122;2023-06-04T15:37:32;8.20;;;2.10;;
66800;SDS011;53703;50.326;19.122;2023-06-04T15:40:27;5.30;;;2.50;;
66800;SDS011;53703;50.326;19.122;2023-06-04T15:43:21;4.90;;;2.30;;
66800;SDS011;53703;50.326;19.122;2023-06-04T15:46:16;3.30;;;2.00;;
66800;SDS011;53703;50.326;19.122;2023-06-04T15:49:10;5.10;;;2.10;;
66800;SDS011;53703;50.326;19.122;2023-06-04T15:52:04;4.20;;;2.00;;
66800;SDS011;53703;50.326;19.122;2023-06-04T15:54:58;8.70;;;2.30;;
66800;SDS011;53703;50.326;19.122;2023-06-04T15:57:52;8.50;;;3.00;;
66800;SDS011;53703;50.326;19.122;2023-06-04T16:00:47;6.30;;;2.50;;
66800;SDS011;53703;50.326;19.122;2023-06-04T16:03:40;6.10;;;2.70;;
66800;SDS011;53703;50.326;19.122;2023-06-04T16:06:35;9.10;;;2.60;;
66800;SDS011;53703;50.326;19.122;2023-06-04T16:09:29;6.50;;;2.40;;
66800;SDS011;53703;50.326;19.122;2023-06-04T16:12:23;9.10;;;2.90;;
66800;SDS011;53703;50.326;19.122;2023-06-04T16:15:17;4.40;;;2.20;;
66800;SDS011;53703;50.326;19.122;2023-06-04T16:18:11;6.90;;;2.70;;
66800;SDS011;53703;50.326;19.122;2023-06-04T16:21:06;7.20;;;2.50;;
66800;SDS011;53703;50.326;19.122;2023-06-04T16:24:00;4.90;;;2.30;;
66800;SDS011;53703;50.326;19.122;2023-06-04T16:26:54;3.30;;;1.90;;
66800;SDS011;53703;50.326;19.122;2023-06-04T16:29:48;5.90;;;1.80;;
66800;SDS011;53703;50.326;19.122;2023-06-04T16:32:42;5.20;;;2.10;;
66800;SDS011;53703;50.326;19.122;2023-06-04T16:35:37;5.30;;;2.20;;
66800;SDS011;53703;50.326;19.122;2023-06-04T16:38:31;4.70;;;1.80;;
66800;SDS011;53703;50.326;19.122;2023-06-04T16:41:25;3.70;;;1.80;;
66800;SDS011;53703;50.326;19.122;2023-06-04T16:44:19;3.60;;;2.10;;
66800;SDS011;53703;50.326;19.122;2023-06-04T16:47:13;3.30;;;1.80;;
66800;SDS011;53703;50.326;19.122;2023-06-04T16:50:09;3.40;;;1.70;;
66800;SDS011;53703;50.326;19.122;2023-06-04T16:53:03;4.10;;;1.90;;
66800;SDS011;53703;50.326;19.122;2023-06-04T16:55:57;7.50;;;1.80;;
66800;SDS011;53703;50.326;19.122;2023-06-04T16:58:52;4.20;;;1.80;;
66800;SDS011;53703;50.326;19.122;2023-06-04T17:01:47;4.20;;;1.60;;
66800;SDS011;53703;50.326;19.122;2023-06-04T17:04:41;3.80;;;1.90;;
66800;SDS011;53703;50.326;19.122;2023-06-04T17:10:19;2.70;;;1.60;;
66800;SDS011;53703;50.326;19.122;2023-06-04T17:13:13;5.90;;;1.80;;
66800;SDS011;53703;50.326;19.122;2023-06-04T17:16:08;3.50;;;1.70;;
66800;SDS011;53703;50.326;19.122;2023-06-04T17:19:03;5.00;;;1.60;;
66800;SDS011;53703;50.326;19.122;2023-06-04T17:21:59;3.70;;;1.50;;
66800;SDS011;53703;50.326;19.122;2023-06-04T17:24:55;4.40;;;1.80;;
66800;SDS011;53703;50.326;19.122;2023-06-04T17:27:49;4.90;;;1.50;;